sensor_id;sensor_type;location;lat;lon;timestamp;temperature;humidity
13673;DHT22;6909;52.202;9.876;2023-09-30T00:02:19;12.60;99.90
13673;DHT22;6909;52.202;9.876;2023-09-30T00:04:45;12.50;99.90
13673;DHT22;6909;52.202;9.876;2023-09-30T00:07:12;12.50;99.90
13673;DHT22;6909;52.202;9.876;2023-09-30T00:09:40;12.50;99.90
13673;DHT22;6909;52.202;9.876;2023-09-30T00:12:07;12.50;99.90
13673;DHT22;6909;52.202;9.876;2023-09-30T00:14:34;12.50;99.90
13673;DHT22;6909;52.202;9.876;2023-09-30T00:17:01;12.60;99.90
13673;DHT22;6909;52.202;9.876;2023-09-30T00:19:28;12.60;99.90
13673;DHT22;6909;52.202;9.876;2023-09-30T00:21:57;12.70;99.90
13673;DHT22;6909;52.202;9.876;2023-09-30T00:24:25;12.80;99.90
13673;DHT22;6909;52.202;9.876;2023-09-30T00:26:53;12.80;99.90
13673;DHT22;6909;52.202;9.876;2023-09-30T00:29:20;12.80;99.90
13673;DHT22;6909;52.202;9.876;2023-09-30T00:31:47;12.80;99.90
13673;DHT22;6909;52.202;9.876;2023-09-30T00:34:14;12.70;99.90
13673;DHT22;6909;52.202;9.876;2023-09-30T00:36:41;12.60;99.90
13673;DHT22;6909;52.202;9.876;2023-09-30T00:39:08;12.50;99.90
13673;DHT22;6909;52.202;9.876;2023-09-30T00:41:35;12.50;99.90
13673;DHT22;6909;52.202;9.876;2023-09-30T00:44:03;12.40;99.90
13673;DHT22;6909;52.202;9.876;2023-09-30T00:46:32;12.40;99.90
13673;DHT22;6909;52.202;9.876;2023-09-30T00:49:00;12.40;99.90
13673;DHT22;6909;52.202;9.876;2023-09-30T00:51:28;12.40;99.90
13673;DHT22;6909;52.202;9.876;2023-09-30T00:53:58;12.30;99.90
13673;DHT22;6909;52.202;9.876;2023-09-30T00:56:27;12.30;99.90
13673;DHT22;6909;52.202;9.876;2023-09-30T00:58:54;12.40;99.90
13673;DHT22;6909;52.202;9.876;2023-09-30T01:01:23;12.30;99.90
13673;DHT22;6909;52.202;9.876;2023-09-30T01:03:50;12.30;99.90
13673;DHT22;6909;52.202;9.876;2023-09-30T01:06:17;12.30;99.90
13673;DHT22;6909;52.202;9.876;2023-09-30T01:08:44;12.20;99.90
13673;DHT22;6909;52.202;9.876;2023-09-30T01:11:12;12.30;99.90
13673;DHT22;6909;52.202;9.876;2023-09-30T01:13:39;12.20;99.90
13673;DHT22;6909;52.202;9.876;2023-09-30T01:16:07;12.20;99.90
13673;DHT22;6909;52.202;9.876;2023-09-30T01:18:36;12.20;99.90
13673;DHT22;6909;52.202;9.876;2023-09-30T01:21:04;12.20;99.90
13673;DHT22;6909;52.202;9.876;2023-09-30T01:23:33;12.20;99.90
13673;DHT22;6909;52.202;9.876;2023-09-30T01:26:02;12.10;99.90
13673;DHT22;6909;52.202;9.876;2023-09-30T01:28:29;12.10;99.90
13673;DHT22;6909;52.202;9.876;2023-09-30T01:30:56;12.10;99.90
13673;DHT22;6909;52.202;9.876;2023-09-30T01:33:23;12.10;99.90
13673;DHT22;6909;52.202;9.876;2023-09-30T01:35:50;12.10;99.90
13673;DHT22;6909;52.202;9.876;2023-09-30T01:38:17;12.00;99.90
13673;DHT22;6909;52.202;9.876;2023-09-30T01:40:45;12.00;99.90
13673;DHT22;6909;52.202;9.876;2023-09-30T01:43:12;12.00;99.90
13673;DHT22;6909;52.202;9.876;2023-09-30T01:45:39;12.10;99.90
13673;DHT22;6909;52.202;9.876;2023-09-30T01:48:06;12.00;99.90
13673;DHT22;6909;52.202;9.876;2023-09-30T01:50:36;12.00;99.90
13673;DHT22;6909;52.202;9.876;2023-09-30T01:53:03;12.00;99.90
13673;DHT22;6909;52.202;9.876;2023-09-30T01:55:31;12.00;99.90
13673;DHT22;6909;52.202;9.876;2023-09-30T01:57:59;12.00;99.90
13673;DHT22;6909;52.202;9.876;2023-09-30T02:00:26;12.00;99.90
13673;DHT22;6909;52.202;9.876;2023-09-30T02:02:53;12.00;99.90
13673;DHT22;6909;52.202;9.876;2023-09-30T02:05:21;11.90;99.90
13673;DHT22;6909;52.202;9.876;2023-09-30T02:07:48;11.90;99.90
13673;DHT22;6909;52.202;9.876;2023-09-30T02:10:15;11.90;99.90
13673;DHT22;6909;52.202;9.876;2023-09-30T02:12:44;11.80;99.90
13673;DHT22;6909;52.202;9.876;2023-09-30T02:15:12;11.80;99.90
13673;DHT22;6909;52.202;9.876;2023-09-30T02:17:39;11.80;99.90
13673;DHT22;6909;52.202;9.876;2023-09-30T02:20:11;11.80;99.90
13673;DHT22;6909;52.202;9.876;2023-09-30T02:22:41;11.80;99.90
13673;DHT22;6909;52.202;9.876;2023-09-30T02:25:09;11.90;99.90
13673;DHT22;6909;52.202;9.876;2023-09-30T02:27:38;12.00;99.90
13673;DHT22;6909;52.202;9.876;2023-09-30T02:30:06;12.00;99.90
13673;DHT22;6909;52.202;9.876;2023-09-30T02:32:34;12.10;99.90
13673;DHT22;6909;52.202;9.876;2023-09-30T02:35:01;12.10;99.90
13673;DHT22;6909;52.202;9.876;2023-09-30T02:37:28;12.10;99.90
13673;DHT22;6909;52.202;9.876;2023-09-30T02:39:54;12.10;99.90
13673;DHT22;6909;52.202;9.876;2023-09-30T02:42:21;12.10;99.90
13673;DHT22;6909;52.202;9.876;2023-09-30T02:44:49;12.10;99.90
13673;DHT22;6909;52.202;9.876;2023-09-30T02:47:15;12.10;99.90
13673;DHT22;6909;52.202;9.876;2023-09-30T02:49:44;12.10;99.90
13673;DHT22;6909;52.202;9.876;2023-09-30T02:52:10;12.20;99.90
13673;DHT22;6909;52.202;9.876;2023-09-30T02:54:38;12.30;99.90
13673;DHT22;6909;52.202;9.876;2023-09-30T02:57:05;12.30;99.90
13673;DHT22;6909;52.202;9.876;2023-09-30T02:59:34;12.30;99.90
13673;DHT22;6909;52.202;9.876;2023-09-30T03:02:01;12.30;99.90
13673;DHT22;6909;52.202;9.876;2023-09-30T03:04:28;12.30;99.90
13673;DHT22;6909;52.202;9.876;2023-09-30T03:06:57;12.30;99.90
13673;DHT22;6909;52.202;9.876;2023-09-30T03:09:24;12.30;99.90
13673;DHT22;6909;52.202;9.876;2023-09-30T03:11:51;12.30;99.90
13673;DHT22;6909;52.202;9.876;2023-09-30T03:14:19;12.30;99.90
13673;DHT22;6909;52.202;9.876;2023-09-30T03:16:46;12.30;99.90
13673;DHT22;6909;52.202;9.876;2023-09-30T03:19:14;12.30;99.90
13673;DHT22;6909;52.202;9.876;2023-09-30T03:21:42;12.30;99.90
13673;DHT22;6909;52.202;9.876;2023-09-30T03:24:10;12.30;99.90
13673;DHT22;6909;52.202;9.876;2023-09-30T03:26:37;12.30;99.90
13673;DHT22;6909;52.202;9.876;2023-09-30T03:29:06;12.30;99.90
13673;DHT22;6909;52.202;9.876;2023-09-30T03:31:34;12.40;99.90
13673;DHT22;6909;52.202;9.876;2023-09-30T03:34:01;12.40;99.90
13673;DHT22;6909;52.202;9.876;2023-09-30T03:36:30;12.40;99.90
13673;DHT22;6909;52.202;9.876;2023-09-30T03:38:57;12.30;99.90
13673;DHT22;6909;52.202;9.876;2023-09-30T03:41:33;12.30;99.90
13673;DHT22;6909;52.202;9.876;2023-09-30T03:44:00;12.20;99.90
13673;DHT22;6909;52.202;9.876;2023-09-30T03:46:28;12.30;99.90
13673;DHT22;6909;52.202;9.876;2023-09-30T03:48:55;12.30;99.90
13673;DHT22;6909;52.202;9.876;2023-09-30T03:51:22;12.20;99.90
13673;DHT22;6909;52.202;9.876;2023-09-30T03:53:51;12.30;99.90
13673;DHT22;6909;52.202;9.876;2023-09-30T03:56:18;12.20;99.90
13673;DHT22;6909;52.202;9.876;2023-09-30T03:58:46;12.10;99.90
13673;DHT22;6909;52.202;9.876;2023-09-30T04:01:13;12.00;99.90
13673;DHT22;6909;52.202;9.876;2023-09-30T04:03:42;12.00;99.90
13673;DHT22;6909;52.202;9.876;2023-09-30T04:06:09;12.00;99.90
13673;DHT22;6909;52.202;9.876;2023-09-30T04:08:36;12.10;99.90
13673;DHT22;6909;52.202;9.876;2023-09-30T04:11:03;12.00;99.90
13673;DHT22;6909;52.202;9.876;2023-09-30T04:13:30;12.00;99.90
13673;DHT22;6909;52.202;9.876;2023-09-30T04:16:00;12.00;99.90
13673;DHT22;6909;52.202;9.876;2023-09-30T04:18:26;12.00;99.90
13673;DHT22;6909;52.202;9.876;2023-09-30T04:20:54;12.00;99.90
13673;DHT22;6909;52.202;9.876;2023-09-30T04:23:20;12.00;99.90
13673;DHT22;6909;52.202;9.876;2023-09-30T04:25:47;12.00;99.90
13673;DHT22;6909;52.202;9.876;2023-09-30T04:28:15;12.00;99.90
13673;DHT22;6909;52.202;9.876;2023-09-30T04:30:45;11.90;99.90
13673;DHT22;6909;52.202;9.876;2023-09-30T04:33:14;11.70;99.90
13673;DHT22;6909;52.202;9.876;2023-09-30T04:35:42;11.60;99.90
13673;DHT22;6909;52.202;9.876;2023-09-30T04:38:09;11.50;99.90
13673;DHT22;6909;52.202;9.876;2023-09-30T04:40:36;11.40;99.90
13673;DHT22;6909;52.202;9.876;2023-09-30T04:43:03;11.40;99.90
13673;DHT22;6909;52.202;9.876;2023-09-30T04:45:31;11.30;99.90
13673;DHT22;6909;52.202;9.876;2023-09-30T04:47:58;11.40;99.90
13673;DHT22;6909;52.202;9.876;2023-09-30T04:50:28;11.40;99.90
13673;DHT22;6909;52.202;9.876;2023-09-30T04:52:56;11.40;99.90
13673;DHT22;6909;52.202;9.876;2023-09-30T04:55:23;11.40;99.90
13673;DHT22;6909;52.202;9.876;2023-09-30T04:57:50;11.30;99.90
13673;DHT22;6909;52.202;9.876;2023-09-30T05:00:18;11.40;99.90
13673;DHT22;6909;52.202;9.876;2023-09-30T05:02:50;11.40;99.90
13673;DHT22;6909;52.202;9.876;2023-09-30T05:05:17;11.40;99.90
13673;DHT22;6909;52.202;9.876;2023-09-30T05:07:45;11.40;99.90
13673;DHT22;6909;52.202;9.876;2023-09-30T05:10:13;11.30;99.90
13673;DHT22;6909;52.202;9.876;2023-09-30T05:12:42;11.30;99.90
13673;DHT22;6909;52.202;9.876;2023-09-30T05:15:11;11.30;99.90
13673;DHT22;6909;52.202;9.876;2023-09-30T05:17:39;11.30;99.90
13673;DHT22;6909;52.202;9.876;2023-09-30T05:20:06;11.40;99.90
13673;DHT22;6909;52.202;9.876;2023-09-30T05:22:33;11.30;99.90
13673;DHT22;6909;52.202;9.876;2023-09-30T05:25:01;11.30;99.90
13673;DHT22;6909;52.202;9.876;2023-09-30T05:27:28;11.30;99.90
13673;DHT22;6909;52.202;9.876;2023-09-30T05:29:55;11.40;99.90
13673;DHT22;6909;52.202;9.876;2023-09-30T05:32:21;11.30;99.90
13673;DHT22;6909;52.202;9.876;2023-09-30T05:34:48;11.40;99.90
13673;DHT22;6909;52.202;9.876;2023-09-30T05:37:15;11.40;99.90
13673;DHT22;6909;52.202;9.876;2023-09-30T05:39:42;11.50;99.90
13673;DHT22;6909;52.202;9.876;2023-09-30T05:42:11;11.50;99.90
13673;DHT22;6909;52.202;9.876;2023-09-30T05:44:38;11.60;99.90
13673;DHT22;6909;52.202;9.876;2023-09-30T05:47:05;11.60;99.90
13673;DHT22;6909;52.202;9.876;2023-09-30T05:49:31;11.60;99.90
13673;DHT22;6909;52.202;9.876;2023-09-30T05:51:58;11.60;99.90
13673;DHT22;6909;52.202;9.876;2023-09-30T05:54:25;11.60;99.90
13673;DHT22;6909;52.202;9.876;2023-09-30T05:56:52;11.80;99.90
13673;DHT22;6909;52.202;9.876;2023-09-30T05:59:20;11.90;99.90
13673;DHT22;6909;52.202;9.876;2023-09-30T06:01:47;12.10;99.90
13673;DHT22;6909;52.202;9.876;2023-09-30T06:04:13;12.20;99.90
13673;DHT22;6909;52.202;9.876;2023-09-30T06:06:40;12.40;99.90
13673;DHT22;6909;52.202;9.876;2023-09-30T06:09:08;12.50;99.90
13673;DHT22;6909;52.202;9.876;2023-09-30T06:11:35;12.60;99.90
13673;DHT22;6909;52.202;9.876;2023-09-30T06:14:02;12.70;99.90
13673;DHT22;6909;52.202;9.876;2023-09-30T06:16:33;12.80;99.90
13673;DHT22;6909;52.202;9.876;2023-09-30T06:19:00;13.00;99.90
13673;DHT22;6909;52.202;9.876;2023-09-30T06:21:27;13.20;99.90
13673;DHT22;6909;52.202;9.876;2023-09-30T06:23:55;13.20;99.90
13673;DHT22;6909;52.202;9.876;2023-09-30T06:26:22;13.40;99.90
13673;DHT22;6909;52.202;9.876;2023-09-30T06:28:50;13.30;99.90
13673;DHT22;6909;52.202;9.876;2023-09-30T06:31:19;13.30;99.90
13673;DHT22;6909;52.202;9.876;2023-09-30T06:33:47;14.10;99.90
13673;DHT22;6909;52.202;9.876;2023-09-30T06:36:14;15.40;99.90
13673;DHT22;6909;52.202;9.876;2023-09-30T06:38:43;15.90;99.90
13673;DHT22;6909;52.202;9.876;2023-09-30T06:41:15;16.90;99.90
13673;DHT22;6909;52.202;9.876;2023-09-30T06:43:42;18.10;99.90
13673;DHT22;6909;52.202;9.876;2023-09-30T06:46:09;19.60;99.90
13673;DHT22;6909;52.202;9.876;2023-09-30T06:48:36;20.40;99.90
13673;DHT22;6909;52.202;9.876;2023-09-30T06:51:07;20.20;99.90
13673;DHT22;6909;52.202;9.876;2023-09-30T06:53:34;20.80;99.90
13673;DHT22;6909;52.202;9.876;2023-09-30T06:56:04;21.80;99.90
13673;DHT22;6909;52.202;9.876;2023-09-30T06:58:31;21.80;99.90
13673;DHT22;6909;52.202;9.876;2023-09-30T07:00:58;21.60;99.90
13673;DHT22;6909;52.202;9.876;2023-09-30T07:03:25;22.50;99.90
13673;DHT22;6909;52.202;9.876;2023-09-30T07:05:52;22.80;99.90
13673;DHT22;6909;52.202;9.876;2023-09-30T07:08:23;22.40;99.90
13673;DHT22;6909;52.202;9.876;2023-09-30T07:10:50;21.40;99.90
13673;DHT22;6909;52.202;9.876;2023-09-30T07:13:18;22.40;99.90
13673;DHT22;6909;52.202;9.876;2023-09-30T07:15:44;22.90;99.90
13673;DHT22;6909;52.202;9.876;2023-09-30T07:18:11;23.10;99.90
13673;DHT22;6909;52.202;9.876;2023-09-30T07:20:39;23.40;99.90
13673;DHT22;6909;52.202;9.876;2023-09-30T07:23:06;22.60;99.90
13673;DHT22;6909;52.202;9.876;2023-09-30T07:25:36;22.30;99.90
13673;DHT22;6909;52.202;9.876;2023-09-30T07:28:03;21.80;99.90
13673;DHT22;6909;52.202;9.876;2023-09-30T07:30:30;21.40;99.90
13673;DHT22;6909;52.202;9.876;2023-09-30T07:32:56;21.60;99.90
13673;DHT22;6909;52.202;9.876;2023-09-30T07:35:23;20.90;99.90
13673;DHT22;6909;52.202;9.876;2023-09-30T07:37:50;20.70;99.90
13673;DHT22;6909;52.202;9.876;2023-09-30T07:40:18;20.80;99.90
13673;DHT22;6909;52.202;9.876;2023-09-30T07:42:47;20.50;99.90
13673;DHT22;6909;52.202;9.876;2023-09-30T07:45:15;20.40;99.90
13673;DHT22;6909;52.202;9.876;2023-09-30T07:47:43;19.40;1.00
13673;DHT22;6909;52.202;9.876;2023-09-30T07:50:11;18.70;99.90
13673;DHT22;6909;52.202;9.876;2023-09-30T07:52:38;18.30;99.90
13673;DHT22;6909;52.202;9.876;2023-09-30T07:55:07;18.40;1.00
13673;DHT22;6909;52.202;9.876;2023-09-30T07:57:34;18.10;1.00
13673;DHT22;6909;52.202;9.876;2023-09-30T08:00:03;17.80;1.00
13673;DHT22;6909;52.202;9.876;2023-09-30T08:02:33;17.80;1.00
13673;DHT22;6909;52.202;9.876;2023-09-30T08:05:02;17.90;1.00
13673;DHT22;6909;52.202;9.876;2023-09-30T08:07:29;17.80;1.00
13673;DHT22;6909;52.202;9.876;2023-09-30T08:09:56;17.80;85.10
13673;DHT22;6909;52.202;9.876;2023-09-30T08:12:23;17.80;33.30
13673;DHT22;6909;52.202;9.876;2023-09-30T08:14:50;17.90;99.90
13673;DHT22;6909;52.202;9.876;2023-09-30T08:17:18;17.90;1.00
13673;DHT22;6909;52.202;9.876;2023-09-30T08:19:45;17.80;1.00
13673;DHT22;6909;52.202;9.876;2023-09-30T08:22:13;17.80;1.00
13673;DHT22;6909;52.202;9.876;2023-09-30T08:24:40;17.80;1.00
13673;DHT22;6909;52.202;9.876;2023-09-30T08:27:06;17.90;1.00
13673;DHT22;6909;52.202;9.876;2023-09-30T08:29:34;17.90;1.00
13673;DHT22;6909;52.202;9.876;2023-09-30T08:32:02;18.00;1.00
13673;DHT22;6909;52.202;9.876;2023-09-30T08:34:30;18.00;99.90
13673;DHT22;6909;52.202;9.876;2023-09-30T08:36:57;18.10;1.00
13673;DHT22;6909;52.202;9.876;2023-09-30T08:39:24;18.10;1.00
13673;DHT22;6909;52.202;9.876;2023-09-30T08:41:51;18.10;1.00
13673;DHT22;6909;52.202;9.876;2023-09-30T08:44:19;17.90;1.00
13673;DHT22;6909;52.202;9.876;2023-09-30T08:46:46;18.00;1.00
13673;DHT22;6909;52.202;9.876;2023-09-30T08:49:14;17.80;99.90
13673;DHT22;6909;52.202;9.876;2023-09-30T08:51:43;17.90;99.90
13673;DHT22;6909;52.202;9.876;2023-09-30T08:54:10;17.70;99.90
13673;DHT22;6909;52.202;9.876;2023-09-30T08:56:37;17.70;99.90
13673;DHT22;6909;52.202;9.876;2023-09-30T08:59:07;17.70;99.90
13673;DHT22;6909;52.202;9.876;2023-09-30T09:01:36;17.70;99.90
13673;DHT22;6909;52.202;9.876;2023-09-30T09:04:04;17.90;99.90
13673;DHT22;6909;52.202;9.876;2023-09-30T09:06:31;17.90;97.60
13673;DHT22;6909;52.202;9.876;2023-09-30T09:11:51;17.70;1.00
13673;DHT22;6909;52.202;9.876;2023-09-30T09:14:18;17.80;1.00
13673;DHT22;6909;52.202;9.876;2023-09-30T09:16:51;17.80;99.90
13673;DHT22;6909;52.202;9.876;2023-09-30T09:19:19;17.80;1.00
13673;DHT22;6909;52.202;9.876;2023-09-30T09:21:53;17.90;99.90
13673;DHT22;6909;52.202;9.876;2023-09-30T09:24:28;17.90;99.90
13673;DHT22;6909;52.202;9.876;2023-09-30T09:27:05;17.90;1.00
13673;DHT22;6909;52.202;9.876;2023-09-30T09:29:33;18.10;1.00
13673;DHT22;6909;52.202;9.876;2023-09-30T09:32:13;18.20;1.00
13673;DHT22;6909;52.202;9.876;2023-09-30T09:34:40;18.30;1.00
13673;DHT22;6909;52.202;9.876;2023-09-30T09:37:16;18.30;1.00
13673;DHT22;6909;52.202;9.876;2023-09-30T09:39:53;18.30;1.00
13673;DHT22;6909;52.202;9.876;2023-09-30T09:42:29;18.30;1.00
13673;DHT22;6909;52.202;9.876;2023-09-30T09:44:57;18.30;1.00
13673;DHT22;6909;52.202;9.876;2023-09-30T09:47:24;18.30;1.00
13673;DHT22;6909;52.202;9.876;2023-09-30T09:49:52;18.50;1.00
13673;DHT22;6909;52.202;9.876;2023-09-30T09:52:20;18.50;1.00
13673;DHT22;6909;52.202;9.876;2023-09-30T09:54:48;18.50;99.90
13673;DHT22;6909;52.202;9.876;2023-09-30T09:57:17;18.50;60.40
13673;DHT22;6909;52.202;9.876;2023-09-30T09:59:46;18.50;97.60
13673;DHT22;6909;52.202;9.876;2023-09-30T10:02:14;18.50;99.90
13673;DHT22;6909;52.202;9.876;2023-09-30T10:04:43;18.30;1.00
13673;DHT22;6909;52.202;9.876;2023-09-30T10:07:12;18.10;1.00
13673;DHT22;6909;52.202;9.876;2023-09-30T10:09:44;18.30;70.50
13673;DHT22;6909;52.202;9.876;2023-09-30T10:12:12;18.50;99.90
13673;DHT22;6909;52.202;9.876;2023-09-30T10:14:39;18.50;1.00
13673;DHT22;6909;52.202;9.876;2023-09-30T10:17:07;18.40;1.00
13673;DHT22;6909;52.202;9.876;2023-09-30T10:19:34;18.50;1.00
13673;DHT22;6909;52.202;9.876;2023-09-30T10:22:23;18.40;1.00
13673;DHT22;6909;52.202;9.876;2023-09-30T10:24:52;18.50;1.00
13673;DHT22;6909;52.202;9.876;2023-09-30T10:27:35;18.50;1.00
13673;DHT22;6909;52.202;9.876;2023-09-30T10:30:07;18.70;1.00
13673;DHT22;6909;52.202;9.876;2023-09-30T10:33:13;18.60;99.90
13673;DHT22;6909;52.202;9.876;2023-09-30T10:35:50;18.70;99.90
13673;DHT22;6909;52.202;9.876;2023-09-30T10:38:37;18.80;99.90
13673;DHT22;6909;52.202;9.876;2023-09-30T10:41:06;19.00;99.90
13673;DHT22;6909;52.202;9.876;2023-09-30T10:43:35;18.90;99.90
13673;DHT22;6909;52.202;9.876;2023-09-30T10:46:02;18.90;99.90
13673;DHT22;6909;52.202;9.876;2023-09-30T10:48:38;18.90;84.60
13673;DHT22;6909;52.202;9.876;2023-09-30T10:51:17;19.00;1.00
13673;DHT22;6909;52.202;9.876;2023-09-30T10:53:48;19.20;50.40
13673;DHT22;6909;52.202;9.876;2023-09-30T10:56:17;19.30;1.00
13673;DHT22;6909;52.202;9.876;2023-09-30T10:58:46;19.40;1.00
13673;DHT22;6909;52.202;9.876;2023-09-30T11:01:14;19.50;99.90
13673;DHT22;6909;52.202;9.876;2023-09-30T11:03:43;19.70;1.00
13673;DHT22;6909;52.202;9.876;2023-09-30T11:06:12;19.90;1.00
13673;DHT22;6909;52.202;9.876;2023-09-30T11:08:46;20.10;99.90
13673;DHT22;6909;52.202;9.876;2023-09-30T11:11:13;20.10;1.00
13673;DHT22;6909;52.202;9.876;2023-09-30T11:13:40;20.00;99.90
13673;DHT22;6909;52.202;9.876;2023-09-30T11:16:07;19.50;99.90
13673;DHT22;6909;52.202;9.876;2023-09-30T11:18:35;19.40;1.00
13673;DHT22;6909;52.202;9.876;2023-09-30T11:21:06;19.00;99.90
13673;DHT22;6909;52.202;9.876;2023-09-30T11:23:33;18.90;1.00
13673;DHT22;6909;52.202;9.876;2023-09-30T11:26:01;19.00;99.90
13673;DHT22;6909;52.202;9.876;2023-09-30T11:28:36;18.90;1.00
13673;DHT22;6909;52.202;9.876;2023-09-30T11:31:03;18.80;99.90
13673;DHT22;6909;52.202;9.876;2023-09-30T11:33:31;19.00;1.00
13673;DHT22;6909;52.202;9.876;2023-09-30T11:36:01;18.90;36.90
13673;DHT22;6909;52.202;9.876;2023-09-30T11:38:29;18.90;1.00
13673;DHT22;6909;52.202;9.876;2023-09-30T11:41:00;18.90;99.90
13673;DHT22;6909;52.202;9.876;2023-09-30T11:43:28;18.90;1.00
13673;DHT22;6909;52.202;9.876;2023-09-30T11:46:04;18.90;99.90
13673;DHT22;6909;52.202;9.876;2023-09-30T11:48:32;18.80;99.90
13673;DHT22;6909;52.202;9.876;2023-09-30T11:50:59;18.90;99.90
13673;DHT22;6909;52.202;9.876;2023-09-30T11:53:30;18.90;1.00
13673;DHT22;6909;52.202;9.876;2023-09-30T11:55:57;19.10;99.90
13673;DHT22;6909;52.202;9.876;2023-09-30T11:58:26;19.20;99.90
13673;DHT22;6909;52.202;9.876;2023-09-30T12:00:58;19.30;99.90
13673;DHT22;6909;52.202;9.876;2023-09-30T12:03:25;19.40;1.00
13673;DHT22;6909;52.202;9.876;2023-09-30T12:05:52;19.40;53.50
13673;DHT22;6909;52.202;9.876;2023-09-30T12:08:20;19.40;1.00
13673;DHT22;6909;52.202;9.876;2023-09-30T12:10:48;19.50;99.90
13673;DHT22;6909;52.202;9.876;2023-09-30T12:13:15;19.50;99.90
13673;DHT22;6909;52.202;9.876;2023-09-30T12:15:42;19.60;99.90
13673;DHT22;6909;52.202;9.876;2023-09-30T12:18:09;19.90;1.00
13673;DHT22;6909;52.202;9.876;2023-09-30T12:20:39;19.80;99.90
13673;DHT22;6909;52.202;9.876;2023-09-30T12:23:06;19.90;99.90
13673;DHT22;6909;52.202;9.876;2023-09-30T12:25:33;20.00;99.90
13673;DHT22;6909;52.202;9.876;2023-09-30T12:28:03;20.20;99.90
13673;DHT22;6909;52.202;9.876;2023-09-30T12:30:30;20.40;99.90
13673;DHT22;6909;52.202;9.876;2023-09-30T12:32:58;20.60;99.90
13673;DHT22;6909;52.202;9.876;2023-09-30T12:35:24;20.50;99.90
13673;DHT22;6909;52.202;9.876;2023-09-30T12:37:51;20.40;99.90
13673;DHT22;6909;52.202;9.876;2023-09-30T12:40:18;20.40;99.90
13673;DHT22;6909;52.202;9.876;2023-09-30T12:42:45;20.30;99.90
13673;DHT22;6909;52.202;9.876;2023-09-30T12:45:14;19.90;99.90
13673;DHT22;6909;52.202;9.876;2023-09-30T12:47:42;20.20;99.90
13673;DHT22;6909;52.202;9.876;2023-09-30T12:50:09;20.10;99.90
13673;DHT22;6909;52.202;9.876;2023-09-30T12:52:36;20.20;99.90
13673;DHT22;6909;52.202;9.876;2023-09-30T12:55:04;19.90;99.90
13673;DHT22;6909;52.202;9.876;2023-09-30T12:57:31;19.60;99.90
13673;DHT22;6909;52.202;9.876;2023-09-30T12:59:58;19.30;99.90
13673;DHT22;6909;52.202;9.876;2023-09-30T13:02:26;19.10;99.90
13673;DHT22;6909;52.202;9.876;2023-09-30T13:04:53;18.80;99.90
13673;DHT22;6909;52.202;9.876;2023-09-30T13:07:20;18.80;1.00
13673;DHT22;6909;52.202;9.876;2023-09-30T13:09:46;18.60;99.90
13673;DHT22;6909;52.202;9.876;2023-09-30T13:12:13;18.40;99.90
13673;DHT22;6909;52.202;9.876;2023-09-30T13:14:40;18.40;99.90
13673;DHT22;6909;52.202;9.876;2023-09-30T13:17:07;18.40;99.90
13673;DHT22;6909;52.202;9.876;2023-09-30T13:19:35;18.70;1.00
13673;DHT22;6909;52.202;9.876;2023-09-30T13:22:02;18.80;1.00
13673;DHT22;6909;52.202;9.876;2023-09-30T13:24:29;18.90;99.90
13673;DHT22;6909;52.202;9.876;2023-09-30T13:26:56;19.20;99.90
13673;DHT22;6909;52.202;9.876;2023-09-30T13:29:23;19.40;1.40
13673;DHT22;6909;52.202;9.876;2023-09-30T13:31:49;19.40;1.00
13673;DHT22;6909;52.202;9.876;2023-09-30T13:34:16;19.50;1.00
13673;DHT22;6909;52.202;9.876;2023-09-30T13:36:44;19.30;1.00
13673;DHT22;6909;52.202;9.876;2023-09-30T13:39:11;19.40;1.00
13673;DHT22;6909;52.202;9.876;2023-09-30T13:41:39;19.40;99.90
13673;DHT22;6909;52.202;9.876;2023-09-30T13:44:06;19.40;1.00
13673;DHT22;6909;52.202;9.876;2023-09-30T13:46:33;19.40;1.00
13673;DHT22;6909;52.202;9.876;2023-09-30T13:49:00;19.70;1.00
13673;DHT22;6909;52.202;9.876;2023-09-30T13:51:27;19.80;99.90
13673;DHT22;6909;52.202;9.876;2023-09-30T13:53:55;19.70;99.90
13673;DHT22;6909;52.202;9.876;2023-09-30T13:56:21;19.50;99.90
13673;DHT22;6909;52.202;9.876;2023-09-30T13:58:48;19.30;99.90
13673;DHT22;6909;52.202;9.876;2023-09-30T14:01:21;19.20;99.90
13673;DHT22;6909;52.202;9.876;2023-09-30T14:03:48;18.90;99.90
13673;DHT22;6909;52.202;9.876;2023-09-30T14:06:15;18.90;99.90
13673;DHT22;6909;52.202;9.876;2023-09-30T14:08:42;18.90;1.00
13673;DHT22;6909;52.202;9.876;2023-09-30T14:11:10;18.80;1.00
13673;DHT22;6909;52.202;9.876;2023-09-30T14:13:37;18.70;1.00
13673;DHT22;6909;52.202;9.876;2023-09-30T14:16:04;18.60;1.00
13673;DHT22;6909;52.202;9.876;2023-09-30T14:18:32;18.50;99.90
13673;DHT22;6909;52.202;9.876;2023-09-30T14:20:58;18.60;99.90
13673;DHT22;6909;52.202;9.876;2023-09-30T14:23:26;18.60;23.20
13673;DHT22;6909;52.202;9.876;2023-09-30T14:25:54;18.60;99.90
13673;DHT22;6909;52.202;9.876;2023-09-30T14:28:22;18.60;99.90
13673;DHT22;6909;52.202;9.876;2023-09-30T14:30:49;18.80;99.90
13673;DHT22;6909;52.202;9.876;2023-09-30T14:33:16;18.90;99.90
13673;DHT22;6909;52.202;9.876;2023-09-30T14:35:45;19.00;1.00
13673;DHT22;6909;52.202;9.876;2023-09-30T14:38:11;19.10;99.90
13673;DHT22;6909;52.202;9.876;2023-09-30T14:40:38;19.30;1.00
13673;DHT22;6909;52.202;9.876;2023-09-30T14:43:06;19.20;1.00
13673;DHT22;6909;52.202;9.876;2023-09-30T14:45:38;19.20;1.00
13673;DHT22;6909;52.202;9.876;2023-09-30T14:48:05;19.10;1.00
13673;DHT22;6909;52.202;9.876;2023-09-30T14:50:32;19.20;1.00
13673;DHT22;6909;52.202;9.876;2023-09-30T14:52:59;19.30;99.90
13673;DHT22;6909;52.202;9.876;2023-09-30T14:55:26;19.30;99.90
13673;DHT22;6909;52.202;9.876;2023-09-30T14:57:52;19.30;1.00
13673;DHT22;6909;52.202;9.876;2023-09-30T15:00:19;19.40;99.90
13673;DHT22;6909;52.202;9.876;2023-09-30T15:02:49;19.50;99.90
13673;DHT22;6909;52.202;9.876;2023-09-30T15:05:16;19.60;99.90
13673;DHT22;6909;52.202;9.876;2023-09-30T15:07:43;19.60;1.00
13673;DHT22;6909;52.202;9.876;2023-09-30T15:10:11;19.80;99.90
13673;DHT22;6909;52.202;9.876;2023-09-30T15:12:38;19.80;99.90
13673;DHT22;6909;52.202;9.876;2023-09-30T15:15:05;19.70;99.90
13673;DHT22;6909;52.202;9.876;2023-09-30T15:17:32;19.80;99.90
13673;DHT22;6909;52.202;9.876;2023-09-30T15:20:01;19.50;99.90
13673;DHT22;6909;52.202;9.876;2023-09-30T15:22:28;19.20;99.90
13673;DHT22;6909;52.202;9.876;2023-09-30T15:24:55;19.00;99.90
13673;DHT22;6909;52.202;9.876;2023-09-30T15:27:22;19.00;99.90
13673;DHT22;6909;52.202;9.876;2023-09-30T15:29:50;19.00;99.90
13673;DHT22;6909;52.202;9.876;2023-09-30T15:32:17;18.90;99.90
13673;DHT22;6909;52.202;9.876;2023-09-30T15:34:43;18.80;99.90
13673;DHT22;6909;52.202;9.876;2023-09-30T15:37:11;18.70;99.90
13673;DHT22;6909;52.202;9.876;2023-09-30T15:39:39;18.60;99.90
13673;DHT22;6909;52.202;9.876;2023-09-30T15:42:07;18.40;99.90
13673;DHT22;6909;52.202;9.876;2023-09-30T15:44:34;18.30;99.90
13673;DHT22;6909;52.202;9.876;2023-09-30T15:47:01;18.20;99.90
13673;DHT22;6909;52.202;9.876;2023-09-30T15:49:27;18.10;99.90
13673;DHT22;6909;52.202;9.876;2023-09-30T15:51:54;18.00;1.00
13673;DHT22;6909;52.202;9.876;2023-09-30T15:54:22;17.90;16.10
13673;DHT22;6909;52.202;9.876;2023-09-30T15:56:49;17.80;1.00
13673;DHT22;6909;52.202;9.876;2023-09-30T15:59:16;17.70;1.00